sensor_id;sensor_type;location;lat;lon;timestamp;P1;durP1;ratioP1;P2;durP2;ratioP2
35576;SDS011;21680;52.400;16.920;2023-05-10T00:00:21;10.40;;;5.20;;
35576;SDS011;21680;52.400;16.920;2023-05-10T00:02:47;9.40;;;4.70;;
35576;SDS011;21680;52.400;16.920;2023-05-10T00:05:13;12.20;;;5.20;;
35576;SDS011;21680;52.400;16.920;2023-05-10T00:07:38;8.50;;;4.60;;
35576;SDS011;21680;52.400;16.920;2023-05-10T00:10:04;10.20;;;4.70;;
35576;SDS011;21680;52.400;16.920;2023-05-10T00:12:29;8.60;;;5.00;;
35576;SDS011;21680;52.400;16.920;2023-05-10T00:14:55;13.50;;;5.20;;
35576;SDS011;21680;52.400;16.920;2023-05-10T00:17:20;8.00;;;4.50;;
35576;SDS011;21680;52.400;16.920;2023-05-10T00:19:45;7.70;;;4.20;;
35576;SDS011;21680;52.400;16.920;2023-05-10T00:22:10;9.90;;;5.20;;
35576;SDS011;21680;52.400;16.920;2023-05-10T00:24:36;12.70;;;5.00;;
35576;SDS011;21680;52.400;16.920;2023-05-10T00:27:01;11.40;;;5.00;;
35576;SDS011;21680;52.400;16.920;2023-05-10T00:29:28;13.80;;;5.00;;
35576;SDS011;21680;52.400;16.920;2023-05-10T00:31:54;8.90;;;4.40;;
35576;SDS011;21680;52.400;16.920;2023-05-10T00:34:19;10.50;;;4.90;;
35576;SDS011;21680;52.400;16.920;2023-05-10T00:36:45;8.80;;;4.50;;
35576;SDS011;21680;52.400;16.920;2023-05-10T00:39:10;7.20;;;4.50;;
35576;SDS011;21680;52.400;16.920;2023-05-10T00:41:35;10.30;;;4.50;;
35576;SDS011;21680;52.400;16.920;2023-05-10T00:44:00;9.50;;;4.70;;
35576;SDS011;21680;52.400;16.920;2023-05-10T00:46:27;11.70;;;4.50;;
35576;SDS011;21680;52.400;16.920;2023-05-10T00:48:53;10.20;;;5.70;;
35576;SDS011;21680;52.400;16.920;2023-05-10T00:51:18;15.00;;;4.70;;
35576;SDS011;21680;52.400;16.920;2023-05-10T00:53:45;10.40;;;4.30;;
35576;SDS011;21680;52.400;16.920;2023-05-10T00:56:10;16.50;;;4.80;;
35576;SDS011;21680;52.400;16.920;2023-05-10T00:58:40;7.80;;;4.20;;
35576;SDS011;21680;52.400;16.920;2023-05-10T01:01:07;9.60;;;4.60;;
35576;SDS011;21680;52.400;16.920;2023-05-10T01:03:34;7.00;;;4.10;;
35576;SDS011;21680;52.400;16.920;2023-05-10T01:06:00;7.70;;;4.70;;
35576;SDS011;21680;52.400;16.920;2023-05-10T01:08:26;9.20;;;4.70;;
35576;SDS011;21680;52.400;16.920;2023-05-10T01:10:52;8.60;;;4.60;;
35576;SDS011;21680;52.400;16.920;2023-05-10T01:13:23;14.20;;;4.80;;
35576;SDS011;21680;52.400;16.920;2023-05-10T01:15:57;12.10;;;4.40;;
35576;SDS011;21680;52.400;16.920;2023-05-10T01:18:27;11.60;;;4.60;;
35576;SDS011;21680;52.400;16.920;2023-05-10T01:21:14;9.20;;;4.60;;
35576;SDS011;21680;52.400;16.920;2023-05-10T01:23:45;10.90;;;5.50;;
35576;SDS011;21680;52.400;16.920;2023-05-10T01:34:29;15.20;;;5.10;;
35576;SDS011;21680;52.400;16.920;2023-05-10T01:37:19;8.70;;;4.10;;
35576;SDS011;21680;52.400;16.920;2023-05-10T01:40:00;13.60;;;7.00;;
35576;SDS011;21680;52.400;16.920;2023-05-10T01:42:36;9.10;;;4.90;;
35576;SDS011;21680;52.400;16.920;2023-05-10T01:45:12;15.70;;;5.30;;
35576;SDS011;21680;52.400;16.920;2023-05-10T01:47:44;9.90;;;5.10;;
35576;SDS011;21680;52.400;16.920;2023-05-10T01:50:15;10.40;;;4.80;;
35576;SDS011;21680;52.400;16.920;2023-05-10T01:52:44;10.70;;;4.50;;
35576;SDS011;21680;52.400;16.920;2023-05-10T01:55:32;12.90;;;5.00;;
35576;SDS011;21680;52.400;16.920;2023-05-10T01:58:10;8.10;;;4.30;;
35576;SDS011;21680;52.400;16.920;2023-05-10T02:00:40;13.10;;;4.80;;
35576;SDS011;21680;52.400;16.920;2023-05-10T02:03:09;11.40;;;4.70;;
35576;SDS011;21680;52.400;16.920;2023-05-10T02:05:36;10.40;;;4.60;;
35576;SDS011;21680;52.400;16.920;2023-05-10T02:08:05;9.40;;;4.60;;
35576;SDS011;21680;52.400;16.920;2023-05-10T02:10:32;8.70;;;4.60;;
35576;SDS011;21680;52.400;16.920;2023-05-10T02:12:58;11.90;;;4.70;;
35576;SDS011;21680;52.400;16.920;2023-05-10T02:15:26;12.50;;;4.80;;
35576;SDS011;21680;52.400;16.920;2023-05-10T02:17:52;9.50;;;4.30;;
35576;SDS011;21680;52.400;16.920;2023-05-10T02:20:20;14.80;;;4.30;;
35576;SDS011;21680;52.400;16.920;2023-05-10T02:22:47;8.20;;;4.70;;
35576;SDS011;21680;52.400;16.920;2023-05-10T02:25:15;10.20;;;5.30;;
35576;SDS011;21680;52.400;16.920;2023-05-10T02:27:41;14.90;;;5.30;;
35576;SDS011;21680;52.400;16.920;2023-05-10T02:30:07;11.90;;;4.60;;
35576;SDS011;21680;52.400;16.920;2023-05-10T02:32:34;10.00;;;5.10;;
35576;SDS011;21680;52.400;16.920;2023-05-10T02:35:01;18.30;;;4.60;;
35576;SDS011;21680;52.400;16.920;2023-05-10T02:37:28;14.40;;;5.00;;
35576;SDS011;21680;52.400;16.920;2023-05-10T02:39:55;10.40;;;5.00;;
35576;SDS011;21680;52.400;16.920;2023-05-10T02:42:25;7.70;;;4.50;;
35576;SDS011;21680;52.400;16.920;2023-05-10T02:44:52;9.60;;;3.90;;
35576;SDS011;21680;52.400;16.920;2023-05-10T02:47:21;9.30;;;5.50;;
35576;SDS011;21680;52.400;16.920;2023-05-10T02:49:47;8.20;;;4.50;;
35576;SDS011;21680;52.400;16.920;2023-05-10T02:52:13;14.10;;;5.30;;
35576;SDS011;21680;52.400;16.920;2023-05-10T02:54:49;9.70;;;4.00;;
35576;SDS011;21680;52.400;16.920;2023-05-10T02:57:17;7.20;;;4.30;;
35576;SDS011;21680;52.400;16.920;2023-05-10T02:59:49;11.20;;;4.30;;
35576;SDS011;21680;52.400;16.920;2023-05-10T03:02:15;14.20;;;5.30;;
35576;SDS011;21680;52.400;16.920;2023-05-10T03:04:41;12.90;;;5.00;;
35576;SDS011;21680;52.400;16.920;2023-05-10T03:07:06;9.20;;;4.30;;
35576;SDS011;21680;52.400;16.920;2023-05-10T03:09:32;17.70;;;5.20;;
35576;SDS011;21680;52.400;16.920;2023-05-10T03:17:22;10.90;;;5.00;;
35576;SDS011;21680;52.400;16.920;2023-05-10T03:19:55;7.60;;;4.20;;
35576;SDS011;21680;52.400;16.920;2023-05-10T03:22:38;7.90;;;4.80;;
35576;SDS011;21680;52.400;16.920;2023-05-10T03:25:10;15.40;;;5.60;;
35576;SDS011;21680;52.400;16.920;2023-05-10T03:27:38;13.10;;;4.90;;
35576;SDS011;21680;52.400;16.920;2023-05-10T03:30:08;10.30;;;4.30;;
35576;SDS011;21680;52.400;16.920;2023-05-10T03:32:35;12.60;;;4.70;;
35576;SDS011;21680;52.400;16.920;2023-05-10T03:35:01;17.40;;;4.80;;
35576;SDS011;21680;52.400;16.920;2023-05-10T03:37:32;14.50;;;5.50;;
35576;SDS011;21680;52.400;16.920;2023-05-10T03:39:58;10.40;;;5.10;;
35576;SDS011;21680;52.400;16.920;2023-05-10T03:42:23;10.90;;;4.80;;
35576;SDS011;21680;52.400;16.920;2023-05-10T03:44:48;10.50;;;5.30;;
35576;SDS011;21680;52.400;16.920;2023-05-10T03:47:14;9.40;;;5.20;;
35576;SDS011;21680;52.400;16.920;2023-05-10T03:49:40;10.80;;;4.50;;
35576;SDS011;21680;52.400;16.920;2023-05-10T03:52:05;11.30;;;4.70;;
35576;SDS011;21680;52.400;16.920;2023-05-10T03:54:31;12.40;;;5.40;;
35576;SDS011;21680;52.400;16.920;2023-05-10T03:56:57;14.30;;;5.40;;
35576;SDS011;21680;52.400;16.920;2023-05-10T03:59:22;9.70;;;5.20;;
35576;SDS011;21680;52.400;16.920;2023-05-10T04:01:47;10.80;;;4.80;;
35576;SDS011;21680;52.400;16.920;2023-05-10T04:04:12;12.70;;;5.10;;
35576;SDS011;21680;52.400;16.920;2023-05-10T04:06:38;16.50;;;6.20;;
35576;SDS011;21680;52.400;16.920;2023-05-10T04:09:03;9.10;;;4.90;;
35576;SDS011;21680;52.400;16.920;2023-05-10T04:11:29;8.90;;;4.60;;
35576;SDS011;21680;52.400;16.920;2023-05-10T04:13:54;14.00;;;5.60;;
35576;SDS011;21680;52.400;16.920;2023-05-10T04:16:20;11.70;;;5.50;;
35576;SDS011;21680;52.400;16.920;2023-05-10T04:18:45;10.80;;;5.00;;
35576;SDS011;21680;52.400;16.920;2023-05-10T04:21:11;8.50;;;5.00;;
35576;SDS011;21680;52.400;16.920;2023-05-10T04:23:37;9.80;;;5.20;;
35576;SDS011;21680;52.400;16.920;2023-05-10T04:26:03;14.00;;;5.40;;
35576;SDS011;21680;52.400;16.920;2023-05-10T04:28:28;13.60;;;5.50;;
35576;SDS011;21680;52.400;16.920;2023-05-10T04:31:00;19.60;;;6.00;;
35576;SDS011;21680;52.400;16.920;2023-05-10T04:33:35;14.10;;;5.80;;
35576;SDS011;21680;52.400;16.920;2023-05-10T04:36:01;12.00;;;5.40;;
35576;SDS011;21680;52.400;16.920;2023-05-10T04:38:28;10.70;;;4.80;;
35576;SDS011;21680;52.400;16.920;2023-05-10T04:40:53;12.00;;;5.50;;
35576;SDS011;21680;52.400;16.920;2023-05-10T04:43:19;11.10;;;5.20;;
35576;SDS011;21680;52.400;16.920;2023-05-10T04:45:45;12.30;;;5.40;;
35576;SDS011;21680;52.400;16.920;2023-05-10T04:48:10;12.50;;;5.70;;
35576;SDS011;21680;52.400;16.920;2023-05-10T04:50:36;17.20;;;5.60;;
35576;SDS011;21680;52.400;16.920;2023-05-10T04:53:01;12.70;;;5.90;;
35576;SDS011;21680;52.400;16.920;2023-05-10T04:55:26;13.50;;;5.20;;
35576;SDS011;21680;52.400;16.920;2023-05-10T04:57:52;13.30;;;5.70;;
35576;SDS011;21680;52.400;16.920;2023-05-10T05:00:20;11.60;;;5.40;;
35576;SDS011;21680;52.400;16.920;2023-05-10T05:02:45;13.20;;;5.40;;
35576;SDS011;21680;52.400;16.920;2023-05-10T05:05:11;11.30;;;5.20;;
35576;SDS011;21680;52.400;16.920;2023-05-10T05:07:37;12.60;;;5.60;;
35576;SDS011;21680;52.400;16.920;2023-05-10T05:10:04;10.00;;;5.80;;
35576;SDS011;21680;52.400;16.920;2023-05-10T05:12:32;11.50;;;5.40;;
35576;SDS011;21680;52.400;16.920;2023-05-10T05:14:57;11.50;;;5.90;;
35576;SDS011;21680;52.400;16.920;2023-05-10T05:17:23;13.40;;;6.30;;
35576;SDS011;21680;52.400;16.920;2023-05-10T05:19:48;15.10;;;6.50;;
35576;SDS011;21680;52.400;16.920;2023-05-10T05:22:13;11.70;;;6.00;;
35576;SDS011;21680;52.400;16.920;2023-05-10T05:24:38;13.60;;;5.50;;
35576;SDS011;21680;52.400;16.920;2023-05-10T05:27:04;16.80;;;6.00;;
35576;SDS011;21680;52.400;16.920;2023-05-10T05:29:29;15.40;;;6.00;;
35576;SDS011;21680;52.400;16.920;2023-05-10T05:31:54;13.00;;;6.30;;
35576;SDS011;21680;52.400;16.920;2023-05-10T05:34:20;22.90;;;6.30;;
35576;SDS011;21680;52.400;16.920;2023-05-10T05:36:46;14.20;;;5.10;;
35576;SDS011;21680;52.400;16.920;2023-05-10T05:39:12;12.40;;;5.50;;
35576;SDS011;21680;52.400;16.920;2023-05-10T05:41:37;22.20;;;5.70;;
35576;SDS011;21680;52.400;16.920;2023-05-10T05:44:02;30.10;;;7.10;;
35576;SDS011;21680;52.400;16.920;2023-05-10T05:46:28;16.80;;;6.00;;
35576;SDS011;21680;52.400;16.920;2023-05-10T05:48:53;8.90;;;5.10;;
35576;SDS011;21680;52.400;16.920;2023-05-10T05:51:19;14.20;;;5.60;;
35576;SDS011;21680;52.400;16.920;2023-05-10T05:53:44;10.80;;;5.70;;
35576;SDS011;21680;52.400;16.920;2023-05-10T05:56:10;8.50;;;5.00;;
35576;SDS011;21680;52.400;16.920;2023-05-10T05:58:35;10.90;;;5.20;;
35576;SDS011;21680;52.400;16.920;2023-05-10T06:01:00;17.80;;;6.10;;
35576;SDS011;21680;52.400;16.920;2023-05-10T06:03:26;12.30;;;7.30;;
35576;SDS011;21680;52.400;16.920;2023-05-10T06:05:51;13.70;;;5.70;;
35576;SDS011;21680;52.400;16.920;2023-05-10T06:08:16;15.90;;;5.10;;
35576;SDS011;21680;52.400;16.920;2023-05-10T06:10:42;15.10;;;5.00;;
35576;SDS011;21680;52.400;16.920;2023-05-10T06:13:07;16.10;;;5.20;;
35576;SDS011;21680;52.400;16.920;2023-05-10T06:15:32;17.00;;;5.40;;
35576;SDS011;21680;52.400;16.920;2023-05-10T06:17:58;13.40;;;5.30;;
35576;SDS011;21680;52.400;16.920;2023-05-10T06:20:23;11.50;;;5.70;;
35576;SDS011;21680;52.400;16.920;2023-05-10T06:22:49;11.20;;;5.10;;
35576;SDS011;21680;52.400;16.920;2023-05-10T06:25:14;11.50;;;5.40;;
35576;SDS011;21680;52.400;16.920;2023-05-10T06:27:42;8.90;;;5.00;;
35576;SDS011;21680;52.400;16.920;2023-05-10T06:30:09;8.80;;;4.80;;
35576;SDS011;21680;52.400;16.920;2023-05-10T06:32:35;13.40;;;6.10;;
35576;SDS011;21680;52.400;16.920;2023-05-10T06:35:00;12.00;;;5.10;;
35576;SDS011;21680;52.400;16.920;2023-05-10T06:37:25;13.70;;;5.20;;
35576;SDS011;21680;52.400;16.920;2023-05-10T06:39:51;12.90;;;6.20;;
35576;SDS011;21680;52.400;16.920;2023-05-10T06:42:16;20.90;;;6.50;;
35576;SDS011;21680;52.400;16.920;2023-05-10T06:44:41;19.00;;;5.30;;
35576;SDS011;21680;52.400;16.920;2023-05-10T06:47:06;27.80;;;5.60;;
35576;SDS011;21680;52.400;16.920;2023-05-10T06:49:32;14.80;;;5.50;;
35576;SDS011;21680;52.400;16.920;2023-05-10T06:51:57;13.10;;;5.50;;
35576;SDS011;21680;52.400;16.920;2023-05-10T06:54:22;10.80;;;5.00;;
35576;SDS011;21680;52.400;16.920;2023-05-10T06:56:48;10.50;;;5.70;;
35576;SDS011;21680;52.400;16.920;2023-05-10T06:59:13;8.90;;;5.00;;
35576;SDS011;21680;52.400;16.920;2023-05-10T07:01:39;10.40;;;5.40;;
35576;SDS011;21680;52.400;16.920;2023-05-10T07:04:04;11.70;;;5.00;;
35576;SDS011;21680;52.400;16.920;2023-05-10T07:06:30;12.60;;;5.20;;
35576;SDS011;21680;52.400;16.920;2023-05-10T07:08:55;9.60;;;4.90;;
35576;SDS011;21680;52.400;16.920;2023-05-10T07:11:20;9.60;;;4.30;;
35576;SDS011;21680;52.400;16.920;2023-05-10T07:13:46;11.80;;;5.00;;
35576;SDS011;21680;52.400;16.920;2023-05-10T07:16:11;15.10;;;4.80;;
35576;SDS011;21680;52.400;16.920;2023-05-10T07:18:37;7.60;;;4.90;;
35576;SDS011;21680;52.400;16.920;2023-05-10T07:21:02;13.70;;;5.40;;
35576;SDS011;21680;52.400;16.920;2023-05-10T07:23:27;19.20;;;4.90;;
35576;SDS011;21680;52.400;16.920;2023-05-10T07:25:53;10.50;;;5.20;;
35576;SDS011;21680;52.400;16.920;2023-05-10T07:28:19;17.60;;;4.70;;
35576;SDS011;21680;52.400;16.920;2023-05-10T07:30:45;10.80;;;4.60;;
35576;SDS011;21680;52.400;16.920;2023-05-10T07:33:11;13.10;;;4.70;;
35576;SDS011;21680;52.400;16.920;2023-05-10T07:35:38;10.70;;;4.90;;
35576;SDS011;21680;52.400;16.920;2023-05-10T07:38:04;14.40;;;4.80;;
35576;SDS011;21680;52.400;16.920;2023-05-10T07:40:30;16.50;;;4.80;;
35576;SDS011;21680;52.400;16.920;2023-05-10T07:42:56;7.80;;;4.90;;
35576;SDS011;21680;52.400;16.920;2023-05-10T07:45:21;11.80;;;4.50;;
35576;SDS011;21680;52.400;16.920;2023-05-10T07:47:47;8.30;;;4.20;;
35576;SDS011;21680;52.400;16.920;2023-05-10T07:50:12;7.30;;;3.60;;
35576;SDS011;21680;52.400;16.920;2023-05-10T07:52:38;6.80;;;3.80;;
35576;SDS011;21680;52.400;16.920;2023-05-10T07:55:03;14.80;;;4.80;;
35576;SDS011;21680;52.400;16.920;2023-05-10T07:57:33;13.70;;;4.60;;
35576;SDS011;21680;52.400;16.920;2023-05-10T07:59:58;8.20;;;4.20;;
35576;SDS011;21680;52.400;16.920;2023-05-10T08:02:24;12.20;;;4.70;;
35576;SDS011;21680;52.400;16.920;2023-05-10T08:04:49;10.30;;;4.10;;
35576;SDS011;21680;52.400;16.920;2023-05-10T08:07:14;7.70;;;4.30;;
35576;SDS011;21680;52.400;16.920;2023-05-10T08:09:40;8.40;;;3.80;;
35576;SDS011;21680;52.400;16.920;2023-05-10T08:12:05;6.40;;;4.00;;
35576;SDS011;21680;52.400;16.920;2023-05-10T08:14:31;10.30;;;3.90;;
35576;SDS011;21680;52.400;16.920;2023-05-10T08:16:56;9.20;;;3.80;;
35576;SDS011;21680;52.400;16.920;2023-05-10T08:19:22;14.60;;;4.00;;
35576;SDS011;21680;52.400;16.920;2023-05-10T08:21:48;11.30;;;3.90;;
35576;SDS011;21680;52.400;16.920;2023-05-10T08:24:13;15.50;;;4.40;;
35576;SDS011;21680;52.400;16.920;2023-05-10T08:26:39;7.80;;;4.20;;
35576;SDS011;21680;52.400;16.920;2023-05-10T08:29:05;14.20;;;4.20;;
35576;SDS011;21680;52.400;16.920;2023-05-10T08:31:30;14.00;;;4.00;;
35576;SDS011;21680;52.400;16.920;2023-05-10T08:33:56;37.20;;;4.70;;
35576;SDS011;21680;52.400;16.920;2023-05-10T08:36:21;14.10;;;4.20;;
35576;SDS011;21680;52.400;16.920;2023-05-10T08:38:52;7.40;;;2.90;;
35576;SDS011;21680;52.400;16.920;2023-05-10T08:41:21;11.20;;;3.30;;
35576;SDS011;21680;52.400;16.920;2023-05-10T08:43:50;39.00;;;4.80;;
35576;SDS011;21680;52.400;16.920;2023-05-10T08:46:16;12.10;;;3.10;;
35576;SDS011;21680;52.400;16.920;2023-05-10T08:48:47;8.30;;;2.80;;
35576;SDS011;21680;52.400;16.920;2023-05-10T08:51:13;6.60;;;3.90;;
35576;SDS011;21680;52.400;16.920;2023-05-10T08:53:42;10.70;;;3.90;;
35576;SDS011;21680;52.400;16.920;2023-05-10T08:56:08;9.40;;;3.00;;
35576;SDS011;21680;52.400;16.920;2023-05-10T08:58:34;9.10;;;3.10;;
35576;SDS011;21680;52.400;16.920;2023-05-10T09:00:59;3.90;;;2.50;;
35576;SDS011;21680;52.400;16.920;2023-05-10T09:03:27;14.50;;;3.00;;
35576;SDS011;21680;52.400;16.920;2023-05-10T09:05:52;13.70;;;2.40;;
35576;SDS011;21680;52.400;16.920;2023-05-10T09:08:18;23.50;;;3.30;;
35576;SDS011;21680;52.400;16.920;2023-05-10T09:10:45;25.30;;;3.30;;
35576;SDS011;21680;52.400;16.920;2023-05-10T09:13:12;10.10;;;2.80;;
35576;SDS011;21680;52.400;16.920;2023-05-10T09:15:40;23.10;;;3.40;;
35576;SDS011;21680;52.400;16.920;2023-05-10T09:18:05;2.30;;;1.90;;
35576;SDS011;21680;52.400;16.920;2023-05-10T09:20:31;18.40;;;2.90;;
35576;SDS011;21680;52.400;16.920;2023-05-10T09:22:56;22.50;;;3.40;;
35576;SDS011;21680;52.400;16.920;2023-05-10T09:25:21;5.70;;;1.80;;
35576;SDS011;21680;52.400;16.920;2023-05-10T09:27:47;20.80;;;2.90;;
35576;SDS011;21680;52.400;16.920;2023-05-10T09:30:26;10.60;;;2.40;;
35576;SDS011;21680;52.400;16.920;2023-05-10T09:35:21;11.20;;;2.10;;
35576;SDS011;21680;52.400;16.920;2023-05-10T09:37:49;11.10;;;2.40;;
35576;SDS011;21680;52.400;16.920;2023-05-10T09:40:17;4.00;;;1.50;;
35576;SDS011;21680;52.400;16.920;2023-05-10T09:43:00;11.70;;;2.20;;
35576;SDS011;21680;52.400;16.920;2023-05-10T09:45:28;16.10;;;3.30;;
35576;SDS011;21680;52.400;16.920;2023-05-10T09:47:55;17.10;;;2.80;;
35576;SDS011;21680;52.400;16.920;2023-05-10T09:50:21;3.20;;;1.90;;
35576;SDS011;21680;52.400;16.920;2023-05-10T09:55:24;9.00;;;2.70;;
35576;SDS011;21680;52.400;16.920;2023-05-10T09:58:04;9.10;;;2.00;;
35576;SDS011;21680;52.400;16.920;2023-05-10T10:00:35;13.30;;;2.30;;
35576;SDS011;21680;52.400;16.920;2023-05-10T10:03:02;6.30;;;2.00;;
35576;SDS011;21680;52.400;16.920;2023-05-10T10:05:28;6.90;;;2.10;;
35576;SDS011;21680;52.400;16.920;2023-05-10T10:07:55;12.90;;;2.30;;
35576;SDS011;21680;52.400;16.920;2023-05-10T10:10:22;8.30;;;1.90;;
35576;SDS011;21680;52.400;16.920;2023-05-10T10:12:48;17.60;;;2.60;;
35576;SDS011;21680;52.400;16.920;2023-05-10T10:15:13;12.20;;;2.80;;
35576;SDS011;21680;52.400;16.920;2023-05-10T10:17:39;8.90;;;2.30;;
35576;SDS011;21680;52.400;16.920;2023-05-10T10:20:06;3.40;;;2.20;;
35576;SDS011;21680;52.400;16.920;2023-05-10T10:22:33;5.60;;;2.50;;
35576;SDS011;21680;52.400;16.920;2023-05-10T10:24:59;9.20;;;2.30;;
35576;SDS011;21680;52.400;16.920;2023-05-10T10:27:32;8.90;;;2.10;;
35576;SDS011;21680;52.400;16.920;2023-05-10T10:33:08;2.30;;;1.60;;
35576;SDS011;21680;52.400;16.920;2023-05-10T10:35:55;18.10;;;2.60;;
35576;SDS011;21680;52.400;16.920;2023-05-10T10:38:35;7.80;;;2.10;;
35576;SDS011;21680;52.400;16.920;2023-05-10T10:41:34;7.20;;;1.60;;
35576;SDS011;21680;52.400;16.920;2023-05-10T10:46:58;9.30;;;1.90;;
35576;SDS011;21680;52.400;16.920;2023-05-10T10:50:06;11.00;;;2.30;;
35576;SDS011;21680;52.400;16.920;2023-05-10T10:52:33;9.80;;;2.30;;
35576;SDS011;21680;52.400;16.920;2023-05-10T10:55:07;57.30;;;5.40;;
35576;SDS011;21680;52.400;16.920;2023-05-10T11:08:26;10.50;;;2.60;;
35576;SDS011;21680;52.400;16.920;2023-05-10T11:11:02;2.30;;;1.80;;
35576;SDS011;21680;52.400;16.920;2023-05-10T11:13:30;11.70;;;2.30;;
35576;SDS011;21680;52.400;16.920;2023-05-10T11:15:57;5.90;;;1.40;;
35576;SDS011;21680;52.400;16.920;2023-05-10T11:18:24;4.50;;;1.70;;
35576;SDS011;21680;52.400;16.920;2023-05-10T11:21:00;6.20;;;1.50;;
35576;SDS011;21680;52.400;16.920;2023-05-10T11:26:08;10.10;;;1.90;;
35576;SDS011;21680;52.400;16.920;2023-05-10T11:28:44;10.50;;;2.20;;
35576;SDS011;21680;52.400;16.920;2023-05-10T11:31:10;5.40;;;2.00;;
35576;SDS011;21680;52.400;16.920;2023-05-10T11:33:49;8.40;;;2.90;;
35576;SDS011;21680;52.400;16.920;2023-05-10T11:36:17;5.80;;;1.90;;
35576;SDS011;21680;52.400;16.920;2023-05-10T11:38:44;5.70;;;2.00;;
35576;SDS011;21680;52.400;16.920;2023-05-10T11:41:11;6.20;;;2.10;;
35576;SDS011;21680;52.400;16.920;2023-05-10T11:43:38;7.00;;;2.80;;
35576;SDS011;21680;52.400;16.920;2023-05-10T11:46:05;8.30;;;2.20;;
35576;SDS011;21680;52.400;16.920;2023-05-10T11:48:32;3.60;;;2.20;;
35576;SDS011;21680;52.400;16.920;2023-05-10T11:50:57;2.40;;;2.00;;
35576;SDS011;21680;52.400;16.920;2023-05-10T11:53:25;4.70;;;2.20;;
35576;SDS011;21680;52.400;16.920;2023-05-10T11:55:52;6.40;;;2.30;;
35576;SDS011;21680;52.400;16.920;2023-05-10T11:58:17;6.20;;;2.50;;
35576;SDS011;21680;52.400;16.920;2023-05-10T12:00:43;9.90;;;2.50;;
35576;SDS011;21680;52.400;16.920;2023-05-10T12:03:10;5.50;;;2.30;;
35576;SDS011;21680;52.400;16.920;2023-05-10T12:05:37;5.00;;;1.50;;
35576;SDS011;21680;52.400;16.920;2023-05-10T12:08:12;8.40;;;1.80;;
35576;SDS011;21680;52.400;16.920;2023-05-10T12:10:38;7.80;;;2.20;;
35576;SDS011;21680;52.400;16.920;2023-05-10T12:13:04;4.30;;;2.10;;
35576;SDS011;21680;52.400;16.920;2023-05-10T12:15:29;7.40;;;2.20;;
35576;SDS011;21680;52.400;16.920;2023-05-10T12:17:54;4.00;;;2.20;;
35576;SDS011;21680;52.400;16.920;2023-05-10T12:20:22;5.50;;;2.30;;
35576;SDS011;21680;52.400;16.920;2023-05-10T12:25:24;8.80;;;2.40;;
35576;SDS011;21680;52.400;16.920;2023-05-10T12:30:24;3.10;;;2.10;;
35576;SDS011;21680;52.400;16.920;2023-05-10T12:32:52;7.10;;;1.80;;
35576;SDS011;21680;52.400;16.920;2023-05-10T12:35:18;7.30;;;2.10;;
35576;SDS011;21680;52.400;16.920;2023-05-10T12:37:49;2.40;;;1.80;;
35576;SDS011;21680;52.400;16.920;2023-05-10T12:40:15;6.70;;;2.00;;
35576;SDS011;21680;52.400;16.920;2023-05-10T12:42:45;13.20;;;2.90;;
35576;SDS011;21680;52.400;16.920;2023-05-10T12:45:11;3.70;;;1.80;;
35576;SDS011;21680;52.400;16.920;2023-05-10T12:47:37;5.40;;;2.00;;
35576;SDS011;21680;52.400;16.920;2023-05-10T12:50:03;7.80;;;2.50;;
35576;SDS011;21680;52.400;16.920;2023-05-10T12:52:30;7.40;;;2.00;;
35576;SDS011;21680;52.400;16.920;2023-05-10T12:54:57;3.30;;;2.10;;
35576;SDS011;21680;52.400;16.920;2023-05-10T12:57:23;8.20;;;2.30;;
35576;SDS011;21680;52.400;16.920;2023-05-10T12:59:48;6.70;;;2.30;;
35576;SDS011;21680;52.400;16.920;2023-05-10T13:02:14;5.70;;;2.70;;
35576;SDS011;21680;52.400;16.920;2023-05-10T13:04:41;4.00;;;2.10;;
35576;SDS011;21680;52.400;16.920;2023-05-10T13:07:07;5.40;;;2.50;;
35576;SDS011;21680;52.400;16.920;2023-05-10T13:09:34;6.90;;;2.50;;
35576;SDS011;21680;52.400;16.920;2023-05-10T13:12:00;6.20;;;2.20;;
35576;SDS011;21680;52.400;16.920;2023-05-10T13:14:26;6.40;;;2.20;;
35576;SDS011;21680;52.400;16.920;2023-05-10T13:16:52;5.90;;;2.30;;
35576;SDS011;21680;52.400;16.920;2023-05-10T13:19:17;5.80;;;1.80;;
35576;SDS011;21680;52.400;16.920;2023-05-10T13:21:43;6.00;;;2.60;;
35576;SDS011;21680;52.400;16.920;2023-05-10T13:24:09;3.80;;;2.00;;
35576;SDS011;21680;52.400;16.920;2023-05-10T13:26:35;4.20;;;2.30;;
35576;SDS011;21680;52.400;16.920;2023-05-10T13:29:01;5.50;;;2.20;;
35576;SDS011;21680;52.400;16.920;2023-05-10T13:31:27;6.00;;;2.10;;
35576;SDS011;21680;52.400;16.920;2023-05-10T13:33:53;5.20;;;1.70;;
35576;SDS011;21680;52.400;16.920;2023-05-10T13:36:18;9.90;;;2.70;;
35576;SDS011;21680;52.400;16.920;2023-05-10T13:38:43;10.50;;;2.60;;
35576;SDS011;21680;52.400;16.920;2023-05-10T13:41:08;3.10;;;2.00;;
35576;SDS011;21680;52.400;16.920;2023-05-10T13:43:35;7.20;;;2.50;;
35576;SDS011;21680;52.400;16.920;2023-05-10T13:46:01;9.10;;;2.30;;
35576;SDS011;21680;52.400;16.920;2023-05-10T13:48:26;2.80;;;1.90;;
35576;SDS011;21680;52.400;16.920;2023-05-10T13:50:51;3.90;;;1.70;;
35576;SDS011;21680;52.400;16.920;2023-05-10T13:53:17;7.60;;;2.10;;
35576;SDS011;21680;52.400;16.920;2023-05-10T13:59:04;11.00;;;2.20;;
35576;SDS011;21680;52.400;16.920;2023-05-10T14:01:31;7.10;;;2.00;;
35576;SDS011;21680;52.400;16.920;2023-05-10T14:03:56;16.80;;;3.40;;
35576;SDS011;21680;52.400;16.920;2023-05-10T14:06:21;15.60;;;2.70;;
35576;SDS011;21680;52.400;16.920;2023-05-10T14:08:47;13.20;;;2.80;;
35576;SDS011;21680;52.400;16.920;2023-05-10T14:11:12;5.50;;;2.30;;
35576;SDS011;21680;52.400;16.920;2023-05-10T14:13:38;6.20;;;2.20;;
35576;SDS011;21680;52.400;16.920;2023-05-10T14:16:04;10.60;;;2.20;;
35576;SDS011;21680;52.400;16.920;2023-05-10T14:18:30;7.10;;;2.40;;
35576;SDS011;21680;52.400;16.920;2023-05-10T14:20:55;7.20;;;2.70;;
35576;SDS011;21680;52.400;16.920;2023-05-10T14:23:21;6.40;;;2.40;;
35576;SDS011;21680;52.400;16.920;2023-05-10T14:25:51;14.00;;;2.70;;
35576;SDS011;21680;52.400;16.920;2023-05-10T14:28:17;4.10;;;2.00;;
35576;SDS011;21680;52.400;16.920;2023-05-10T14:30:43;8.20;;;2.50;;
35576;SDS011;21680;52.400;16.920;2023-05-10T14:33:09;5.70;;;2.40;;
35576;SDS011;21680;52.400;16.920;2023-05-10T14:35:35;4.80;;;2.30;;
35576;SDS011;21680;52.400;16.920;2023-05-10T14:38:01;23.00;;;3.60;;
35576;SDS011;21680;52.400;16.920;2023-05-10T14:40:27;6.70;;;2.40;;
35576;SDS011;21680;52.400;16.920;2023-05-10T14:42:53;15.50;;;3.20;;
35576;SDS011;21680;52.400;16.920;2023-05-10T14:45:18;7.00;;;2.00;;
35576;SDS011;21680;52.400;16.920;2023-05-10T14:47:44;5.00;;;2.10;;
35576;SDS011;21680;52.400;16.920;2023-05-10T14:50:10;23.10;;;3.70;;
35576;SDS011;21680;52.400;16.920;2023-05-10T14:55:57;18.00;;;2.80;;
35576;SDS011;21680;52.400;16.920;2023-05-10T14:58:22;8.70;;;2.90;;
35576;SDS011;21680;52.400;16.920;2023-05-10T15:00:48;11.70;;;3.40;;
35576;SDS011;21680;52.400;16.920;2023-05-10T15:03:13;8.00;;;2.70;;
35576;SDS011;21680;52.400;16.920;2023-05-10T15:05:39;5.40;;;2.10;;
35576;SDS011;21680;52.400;16.920;2023-05-10T15:08:05;4.50;;;2.30;;
35576;SDS011;21680;52.400;16.920;2023-05-10T15:10:31;6.80;;;2.30;;
35576;SDS011;21680;52.400;16.920;2023-05-10T15:12:57;4.30;;;2.50;;
35576;SDS011;21680;52.400;16.920;2023-05-10T15:15:23;6.70;;;2.30;;
35576;SDS011;21680;52.400;16.920;2023-05-10T15:17:49;4.00;;;2.30;;